Ust'- Njukzha, Russia
Current Conditions -  °F | °C
As of 9:30 AM on Thursday 18 Dec 2014 (Local Time) from UIAA Reporting Station
Few Clouds Few Clouds  
Wind Chill: -2°   Ceiling: Unl
Heat Index: -2°   Visibility: 6mi
Dew Point: -6°   Wind: 2mph
Humidity: 85%   Direction: NA
Pressure: 29.91"   Gusts: NA
Location:  56.58°N, 121.48°E
Report Text: UIAA 180030Z VRB01MPS 9999 FEW100 M19/M21 Q1013 NOSIG RMKQFE701 29490050
Loading
Personal Weather Stations






























Interactive Weather Map New forecast layout! Learn more

10-Day Weather Forecast

Advertisements
Track Severe Weather on mobile